地図

経路データ

SID SEASON NUMBER BASIN SUBBASIN NAME ISO_TIME NATURE LAT LON WMO_WIND WMO_PRES WMO_AGENCY TRACK_TYPE DIST2LAND LANDFALL IFLAG USA_AGENCY USA_ATCF_ID USA_LAT USA_LON USA_RECORD USA_STATUS USA_WIND USA_PRES USA_SSHS USA_R34_NE USA_R34_SE USA_R34_SW USA_R34_NW USA_R50_NE USA_R50_SE USA_R50_SW USA_R50_NW USA_R64_NE USA_R64_SE USA_R64_SW USA_R64_NW USA_POCI USA_ROCI USA_RMW USA_EYE TOKYO_LAT TOKYO_LON TOKYO_GRADE TOKYO_WIND TOKYO_PRES TOKYO_R50_DIR TOKYO_R50_LONG TOKYO_R50_SHORT TOKYO_R30_DIR TOKYO_R30_LONG TOKYO_R30_SHORT TOKYO_LAND CMA_LAT CMA_LON CMA_CAT CMA_WIND CMA_PRES HKO_LAT HKO_LON HKO_CAT HKO_WIND HKO_PRES NEWDELHI_LAT NEWDELHI_LON NEWDELHI_GRADE NEWDELHI_WIND NEWDELHI_PRES NEWDELHI_CI NEWDELHI_DP NEWDELHI_POCI REUNION_LAT REUNION_LON REUNION_TYPE REUNION_WIND REUNION_PRES REUNION_TNUM REUNION_CI REUNION_RMW REUNION_R34_NE REUNION_R34_SE REUNION_R34_SW REUNION_R34_NW REUNION_R50_NE REUNION_R50_SE REUNION_R50_SW REUNION_R50_NW REUNION_R64_NE REUNION_R64_SE REUNION_R64_SW REUNION_R64_NW BOM_LAT BOM_LON BOM_TYPE BOM_WIND BOM_PRES BOM_TNUM BOM_CI BOM_RMW BOM_R34_NE BOM_R34_SE BOM_R34_SW BOM_R34_NW BOM_R50_NE BOM_R50_SE BOM_R50_SW BOM_R50_NW BOM_R64_NE BOM_R64_SE BOM_R64_SW BOM_R64_NW BOM_ROCI BOM_POCI BOM_EYE BOM_POS_METHOD BOM_PRES_METHOD NADI_LAT NADI_LON NADI_CAT NADI_WIND NADI_PRES WELLINGTON_LAT WELLINGTON_LON WELLINGTON_WIND WELLINGTON_PRES DS824_LAT DS824_LON DS824_STAGE DS824_WIND DS824_PRES TD9636_LAT TD9636_LON TD9636_STAGE TD9636_WIND TD9636_PRES TD9635_LAT TD9635_LON TD9635_WIND TD9635_PRES TD9635_ROCI NEUMANN_LAT NEUMANN_LON NEUMANN_CLASS NEUMANN_WIND NEUMANN_PRES MLC_LAT MLC_LON MLC_CLASS MLC_WIND MLC_PRES USA_GUST BOM_GUST BOM_GUST_PER REUNION_GUST REUNION_GUST_PER USA_SEAHGT USA_SEARAD_NE USA_SEARAD_SE USA_SEARAD_SW USA_SEARAD_NW STORM_SPEED STORM_DIR
1930196N18137 1930 31 WP MM NOT_NAMED 1930-07-14 22:00:00 NR 17.6000 136.600 main 1337 1308 __________O___ -1 17.6000 136.600 7 12 297
1930196N18137 1930 31 WP MM NOT_NAMED 1930-07-15 00:00:00 NR 17.7787 136.227 main 1308 1272 __________P___ -1 17.7787 136.227 7 12 297
1930196N18137 1930 31 WP MM NOT_NAMED 1930-07-15 03:00:00 NR 18.0416 135.674 main 1272 1235 __________P___ -1 18.0416 135.674 7 12 297
1930196N18137 1930 31 WP MM NOT_NAMED 1930-07-15 06:00:00 NR 18.2929 135.145 main 1235 1212 __________P___ -1 18.2929 135.145 7 11 297
1930196N18137 1930 31 WP MM NOT_NAMED 1930-07-15 09:00:00 NR 18.5269 134.653 main 1212 1199 __________P___ -1 18.5269 134.653 7 10 297
1930196N18137 1930 31 WP MM NOT_NAMED 1930-07-15 10:00:00 NR 18.6000 134.500 main 1199 1175 __________O___ -1 18.6000 134.500 7 9 297
1930196N18137 1930 31 WP MM NOT_NAMED 1930-07-15 12:00:00 NR 18.7392 134.211 main 1175 1148 __________P___ -1 18.7392 134.211 7 9 297
1930196N18137 1930 31 WP MM NOT_NAMED 1930-07-15 15:00:00 NR 18.9417 133.804 main 1148 1122 __________P___ -1 18.9417 133.804 7 9 298
1930196N18137 1930 31 WP MM NOT_NAMED 1930-07-15 18:00:00 NR 19.1566 133.398 main 1127 1103 __________P___ -1 19.1566 133.398 7 9 300
1930196N18137 1930 31 WP MM NOT_NAMED 1930-07-15 21:00:00 NR 19.4056 132.960 main 1103 1092 __________P___ -1 19.4056 132.960 7 10 301
1930196N18137 1930 31 WP MM NOT_NAMED 1930-07-15 22:00:00 NR 19.5000 132.800 main 1092 1070 __________O___ -1 19.5000 132.800 7 12 301
1930196N18137 1930 31 WP MM NOT_NAMED 1930-07-16 00:00:00 NR 19.7163 132.420 main 1070 1015 __________P___ -1 19.7163 132.420 7 13 302
1930196N18137 1930 31 WP MM NOT_NAMED 1930-07-16 03:00:00 NR 20.0784 131.804 main 1015 959 __________P___ -1 20.0784 131.804 7 14 303
1930196N18137 1930 31 WP MM NOT_NAMED 1930-07-16 06:00:00 NR 20.4685 131.176 main 962 909 __________P___ -1 20.4685 131.176 7 14 305
1930196N18137 1930 31 WP MM NOT_NAMED 1930-07-16 09:00:00 NR 20.8679 130.582 main 912 896 __________P___ -1 20.8679 130.582 7 14 306
1930196N18137 1930 31 WP MM NOT_NAMED 1930-07-16 10:00:00 NR 21.0000 130.400 main 896 870 __________O___ -1 21.0000 130.400 7 12 304
1930196N18137 1930 31 WP MM NOT_NAMED 1930-07-16 12:00:00 NR 21.1866 130.070 main 873 833 __________P___ -1 21.1866 130.070 7 10 303
1930196N18137 1930 31 WP MM NOT_NAMED 1930-07-16 15:00:00 NR 21.4656 129.627 main 837 804 __________P___ -1 21.4656 129.627 7 10 309
1930196N18137 1930 31 WP MM NOT_NAMED 1930-07-16 18:00:00 NR 21.8100 129.240 main 804 755 __________P___ -1 21.8100 129.240 7 11 321
1930196N18137 1930 31 WP MM NOT_NAMED 1930-07-16 21:00:00 NR 22.2945 128.902 main 755 737 __________P___ -1 22.2945 128.902 7 12 329
1930196N18137 1930 31 WP MM NOT_NAMED 1930-07-16 22:00:00 NR 22.5000 128.800 main 737 701 __________O___ -1 22.5000 128.800 7 16 339
1930196N18137 1930 31 WP MM NOT_NAMED 1930-07-17 00:00:00 NR 23.0442 128.584 main 701 646 __________P___ -1 23.0442 128.584 7 19 343
1930196N18137 1930 31 WP MM NOT_NAMED 1930-07-17 03:00:00 NR 24.0130 128.298 main 646 614 __________P___ -1 24.0130 128.298 7 21 347
1930196N18137 1930 31 WP MM NOT_NAMED 1930-07-17 06:00:00 NR 25.0645 128.055 main 614 596 __________P___ -1 25.0645 128.055 7 21 349
1930196N18137 1930 31 WP MM NOT_NAMED 1930-07-17 09:00:00 NR 26.0858 127.856 main 604 594 __________P___ -1 26.0858 127.856 7 20 350
1930196N18137 1930 31 WP MM NOT_NAMED 1930-07-17 10:00:00 NR 26.4000 127.800 main 584 527 __________O___ -1 26.4000 127.800 3 18 351
1930196N18137 1930 31 WP MM NOT_NAMED 1930-07-17 12:00:00 NR 26.9719 127.702 main 527 464 __________P___ -1 26.9719 127.702 3 16 352
1930196N18137 1930 31 WP MM NOT_NAMED 1930-07-17 15:00:00 NR 27.7091 127.586 main 464 415 __________P___ -1 27.7091 127.586 3 14 353
1930196N18137 1930 31 WP MM NOT_NAMED 1930-07-17 18:00:00 NR 28.3416 127.497 main 415 371 __________P___ -1 28.3416 127.497 3 12 353
1930196N18137 1930 31 WP MM NOT_NAMED 1930-07-17 21:00:00 NR 28.9145 127.423 main 371 356 __________P___ -1 28.9145 127.423 3 11 354
1930196N18137 1930 31 WP MM NOT_NAMED 1930-07-17 22:00:00 NR 29.1000 127.400 main 356 __________O___ -1 29.1000 127.400 4 11 358

デジタル台風データ・検索

IBTrACS Databaseについて

本データベースは、米国NOAAが公開する1842年以降の世界の熱帯低気圧のベストトラックデータアーカイブInternational Best Track Archive for Climate Stewardship (IBTrACS)を、ウェブで閲覧しやすい形式に変換したものです。

最終更新日:2021-12-06